sensor_id;sensor_type;location;lat;lon;timestamp;temperature;humidity
18884;DHT22;9574;47.282;9.640;2022-12-29T00:01:28;4.40;99.90
18884;DHT22;9574;47.282;9.640;2022-12-29T00:03:55;4.40;99.90
18884;DHT22;9574;47.282;9.640;2022-12-29T00:06:22;4.40;99.90
18884;DHT22;9574;47.282;9.640;2022-12-29T00:08:50;4.40;99.90
18884;DHT22;9574;47.282;9.640;2022-12-29T00:11:19;4.40;99.90
18884;DHT22;9574;47.282;9.640;2022-12-29T00:13:48;4.50;99.90
18884;DHT22;9574;47.282;9.640;2022-12-29T00:16:34;4.70;99.90
18884;DHT22;9574;47.282;9.640;2022-12-29T00:19:02;4.50;99.90
18884;DHT22;9574;47.282;9.640;2022-12-29T00:21:29;4.50;99.90
18884;DHT22;9574;47.282;9.640;2022-12-29T00:24:15;4.50;99.90
18884;DHT22;9574;47.282;9.640;2022-12-29T00:27:10;4.50;99.90
18884;DHT22;9574;47.282;9.640;2022-12-29T00:29:57;4.40;99.90
18884;DHT22;9574;47.282;9.640;2022-12-29T00:32:42;4.50;99.90
18884;DHT22;9574;47.282;9.640;2022-12-29T00:35:29;4.50;99.90
18884;DHT22;9574;47.282;9.640;2022-12-29T00:38:00;4.50;99.90
18884;DHT22;9574;47.282;9.640;2022-12-29T00:40:46;4.50;99.90
18884;DHT22;9574;47.282;9.640;2022-12-29T00:43:30;4.40;99.90
18884;DHT22;9574;47.282;9.640;2022-12-29T00:46:16;4.50;99.90
18884;DHT22;9574;47.282;9.640;2022-12-29T00:48:42;4.50;99.90
18884;DHT22;9574;47.282;9.640;2022-12-29T00:51:27;4.50;99.90
18884;DHT22;9574;47.282;9.640;2022-12-29T00:53:54;4.50;99.90
18884;DHT22;9574;47.282;9.640;2022-12-29T00:56:21;4.50;99.90
18884;DHT22;9574;47.282;9.640;2022-12-29T00:58:48;4.60;99.90
18884;DHT22;9574;47.282;9.640;2022-12-29T01:01:16;4.60;99.90
18884;DHT22;9574;47.282;9.640;2022-12-29T01:03:43;4.40;99.90
18884;DHT22;9574;47.282;9.640;2022-12-29T01:06:11;4.20;99.90
18884;DHT22;9574;47.282;9.640;2022-12-29T01:08:38;4.00;99.90
18884;DHT22;9574;47.282;9.640;2022-12-29T01:11:06;3.90;99.90
18884;DHT22;9574;47.282;9.640;2022-12-29T01:13:33;3.80;99.90
18884;DHT22;9574;47.282;9.640;2022-12-29T01:16:00;3.70;99.90
18884;DHT22;9574;47.282;9.640;2022-12-29T01:18:28;3.70;99.90
18884;DHT22;9574;47.282;9.640;2022-12-29T01:20:59;3.80;99.90
18884;DHT22;9574;47.282;9.640;2022-12-29T01:23:27;4.00;99.90
18884;DHT22;9574;47.282;9.640;2022-12-29T01:26:03;4.00;99.90
18884;DHT22;9574;47.282;9.640;2022-12-29T01:28:34;4.00;99.90
18884;DHT22;9574;47.282;9.640;2022-12-29T01:31:01;4.10;99.90
18884;DHT22;9574;47.282;9.640;2022-12-29T01:33:30;4.10;99.90
18884;DHT22;9574;47.282;9.640;2022-12-29T01:36:00;4.00;99.90
18884;DHT22;9574;47.282;9.640;2022-12-29T01:38:27;4.00;99.90
18884;DHT22;9574;47.282;9.640;2022-12-29T01:40:54;4.00;99.90
18884;DHT22;9574;47.282;9.640;2022-12-29T01:43:21;3.90;99.90
18884;DHT22;9574;47.282;9.640;2022-12-29T01:45:51;3.90;99.90
18884;DHT22;9574;47.282;9.640;2022-12-29T01:48:19;3.80;99.90
18884;DHT22;9574;47.282;9.640;2022-12-29T01:50:50;3.70;99.90
18884;DHT22;9574;47.282;9.640;2022-12-29T01:53:22;3.50;99.90
18884;DHT22;9574;47.282;9.640;2022-12-29T01:55:54;3.40;99.90
18884;DHT22;9574;47.282;9.640;2022-12-29T01:58:24;3.50;99.90
18884;DHT22;9574;47.282;9.640;2022-12-29T02:00:53;3.50;99.90
18884;DHT22;9574;47.282;9.640;2022-12-29T02:03:21;3.50;99.90
18884;DHT22;9574;47.282;9.640;2022-12-29T02:05:54;3.50;99.90
18884;DHT22;9574;47.282;9.640;2022-12-29T02:08:25;3.60;99.90
18884;DHT22;9574;47.282;9.640;2022-12-29T02:10:53;3.80;99.90
18884;DHT22;9574;47.282;9.640;2022-12-29T02:13:20;3.80;99.90
18884;DHT22;9574;47.282;9.640;2022-12-29T02:15:54;3.80;99.90
18884;DHT22;9574;47.282;9.640;2022-12-29T02:18:35;3.80;99.90
18884;DHT22;9574;47.282;9.640;2022-12-29T02:21:38;3.80;99.90
18884;DHT22;9574;47.282;9.640;2022-12-29T02:27:38;3.80;99.90
18884;DHT22;9574;47.282;9.640;2022-12-29T02:30:12;3.90;99.90
18884;DHT22;9574;47.282;9.640;2022-12-29T02:32:49;4.10;99.90
18884;DHT22;9574;47.282;9.640;2022-12-29T02:35:25;4.30;99.90
18884;DHT22;9574;47.282;9.640;2022-12-29T02:38:03;4.20;99.90
18884;DHT22;9574;47.282;9.640;2022-12-29T02:40:37;4.20;99.90
18884;DHT22;9574;47.282;9.640;2022-12-29T02:43:15;4.30;99.90
18884;DHT22;9574;47.282;9.640;2022-12-29T02:45:50;4.30;99.90
18884;DHT22;9574;47.282;9.640;2022-12-29T02:48:24;4.50;99.90
18884;DHT22;9574;47.282;9.640;2022-12-29T02:50:56;4.60;99.90
18884;DHT22;9574;47.282;9.640;2022-12-29T02:53:25;4.50;99.90
18884;DHT22;9574;47.282;9.640;2022-12-29T02:56:07;4.60;99.90
18884;DHT22;9574;47.282;9.640;2022-12-29T02:58:34;4.40;99.90
18884;DHT22;9574;47.282;9.640;2022-12-29T03:01:16;4.40;99.90
18884;DHT22;9574;47.282;9.640;2022-12-29T03:03:59;4.40;99.90
18884;DHT22;9574;47.282;9.640;2022-12-29T03:06:41;4.40;99.90
18884;DHT22;9574;47.282;9.640;2022-12-29T03:09:25;4.50;99.90
18884;DHT22;9574;47.282;9.640;2022-12-29T03:11:58;4.40;99.90
18884;DHT22;9574;47.282;9.640;2022-12-29T03:14:49;4.40;99.90
18884;DHT22;9574;47.282;9.640;2022-12-29T03:17:43;4.40;99.90
18884;DHT22;9574;47.282;9.640;2022-12-29T03:20:17;4.40;99.90
18884;DHT22;9574;47.282;9.640;2022-12-29T03:22:48;4.30;99.90
18884;DHT22;9574;47.282;9.640;2022-12-29T03:25:21;4.20;99.90
18884;DHT22;9574;47.282;9.640;2022-12-29T03:27:51;4.00;99.90
18884;DHT22;9574;47.282;9.640;2022-12-29T03:30:19;4.10;99.90
18884;DHT22;9574;47.282;9.640;2022-12-29T03:32:49;4.20;99.90
18884;DHT22;9574;47.282;9.640;2022-12-29T03:35:20;4.40;99.90
18884;DHT22;9574;47.282;9.640;2022-12-29T03:37:52;4.50;99.90
18884;DHT22;9574;47.282;9.640;2022-12-29T03:40:21;4.50;99.90
18884;DHT22;9574;47.282;9.640;2022-12-29T03:42:50;4.50;99.90
18884;DHT22;9574;47.282;9.640;2022-12-29T03:45:17;4.50;99.90
18884;DHT22;9574;47.282;9.640;2022-12-29T03:47:45;4.60;99.90
18884;DHT22;9574;47.282;9.640;2022-12-29T03:50:13;4.60;99.90
18884;DHT22;9574;47.282;9.640;2022-12-29T03:52:42;4.60;99.90
18884;DHT22;9574;47.282;9.640;2022-12-29T03:55:09;4.60;99.90
18884;DHT22;9574;47.282;9.640;2022-12-29T03:57:36;4.60;99.90
18884;DHT22;9574;47.282;9.640;2022-12-29T04:00:04;4.60;99.90
18884;DHT22;9574;47.282;9.640;2022-12-29T04:02:32;4.80;99.90
18884;DHT22;9574;47.282;9.640;2022-12-29T04:04:59;4.90;99.90
18884;DHT22;9574;47.282;9.640;2022-12-29T04:07:26;5.00;99.90
18884;DHT22;9574;47.282;9.640;2022-12-29T04:09:54;5.00;99.90
18884;DHT22;9574;47.282;9.640;2022-12-29T04:12:21;5.00;99.90
18884;DHT22;9574;47.282;9.640;2022-12-29T04:14:48;5.00;99.90
18884;DHT22;9574;47.282;9.640;2022-12-29T04:17:15;4.90;99.90
18884;DHT22;9574;47.282;9.640;2022-12-29T04:19:42;5.00;99.90
18884;DHT22;9574;47.282;9.640;2022-12-29T04:22:09;5.00;99.90
18884;DHT22;9574;47.282;9.640;2022-12-29T04:24:37;5.10;99.90
18884;DHT22;9574;47.282;9.640;2022-12-29T04:27:05;5.10;99.90
18884;DHT22;9574;47.282;9.640;2022-12-29T04:29:32;4.90;99.90
18884;DHT22;9574;47.282;9.640;2022-12-29T04:31:59;4.80;99.90
18884;DHT22;9574;47.282;9.640;2022-12-29T04:34:26;4.80;99.90
18884;DHT22;9574;47.282;9.640;2022-12-29T04:36:53;4.80;99.90
18884;DHT22;9574;47.282;9.640;2022-12-29T04:39:20;4.80;99.90
18884;DHT22;9574;47.282;9.640;2022-12-29T04:41:47;4.80;99.90
18884;DHT22;9574;47.282;9.640;2022-12-29T04:44:16;4.80;99.90
18884;DHT22;9574;47.282;9.640;2022-12-29T04:46:43;4.80;99.90
18884;DHT22;9574;47.282;9.640;2022-12-29T04:49:10;4.80;99.90
18884;DHT22;9574;47.282;9.640;2022-12-29T04:51:37;4.80;99.90
18884;DHT22;9574;47.282;9.640;2022-12-29T04:54:04;5.00;99.90
18884;DHT22;9574;47.282;9.640;2022-12-29T04:56:31;5.10;99.90
18884;DHT22;9574;47.282;9.640;2022-12-29T04:58:58;5.00;99.90
18884;DHT22;9574;47.282;9.640;2022-12-29T05:01:26;4.90;99.90
18884;DHT22;9574;47.282;9.640;2022-12-29T05:03:53;4.80;99.90
18884;DHT22;9574;47.282;9.640;2022-12-29T05:06:20;4.80;99.90
18884;DHT22;9574;47.282;9.640;2022-12-29T05:08:47;4.70;99.90
18884;DHT22;9574;47.282;9.640;2022-12-29T05:11:14;4.70;99.90
18884;DHT22;9574;47.282;9.640;2022-12-29T05:13:44;4.60;99.90
18884;DHT22;9574;47.282;9.640;2022-12-29T05:16:11;4.60;99.90
18884;DHT22;9574;47.282;9.640;2022-12-29T05:18:39;4.60;99.90
18884;DHT22;9574;47.282;9.640;2022-12-29T05:21:06;4.80;99.90
18884;DHT22;9574;47.282;9.640;2022-12-29T05:23:33;5.10;99.90
18884;DHT22;9574;47.282;9.640;2022-12-29T05:26:00;5.30;99.90
18884;DHT22;9574;47.282;9.640;2022-12-29T05:28:27;5.40;99.90
18884;DHT22;9574;47.282;9.640;2022-12-29T05:30:54;5.30;99.90
18884;DHT22;9574;47.282;9.640;2022-12-29T05:33:21;5.30;99.90
18884;DHT22;9574;47.282;9.640;2022-12-29T05:35:49;5.30;99.90
18884;DHT22;9574;47.282;9.640;2022-12-29T05:38:16;5.20;99.90
18884;DHT22;9574;47.282;9.640;2022-12-29T05:40:43;5.20;99.90
18884;DHT22;9574;47.282;9.640;2022-12-29T05:43:10;5.20;99.90
18884;DHT22;9574;47.282;9.640;2022-12-29T05:45:37;5.10;99.90
18884;DHT22;9574;47.282;9.640;2022-12-29T05:48:05;5.10;99.90
18884;DHT22;9574;47.282;9.640;2022-12-29T05:50:32;5.00;99.90
18884;DHT22;9574;47.282;9.640;2022-12-29T05:53:00;5.00;99.90
18884;DHT22;9574;47.282;9.640;2022-12-29T05:55:27;5.00;99.90
18884;DHT22;9574;47.282;9.640;2022-12-29T05:57:54;5.10;99.90
18884;DHT22;9574;47.282;9.640;2022-12-29T06:00:21;5.00;99.90
18884;DHT22;9574;47.282;9.640;2022-12-29T06:02:48;5.00;99.90
18884;DHT22;9574;47.282;9.640;2022-12-29T06:05:15;4.90;99.90
18884;DHT22;9574;47.282;9.640;2022-12-29T06:07:42;4.90;99.90
18884;DHT22;9574;47.282;9.640;2022-12-29T06:10:11;4.90;99.90
18884;DHT22;9574;47.282;9.640;2022-12-29T06:12:38;4.90;99.90
18884;DHT22;9574;47.282;9.640;2022-12-29T06:15:06;4.90;99.90
18884;DHT22;9574;47.282;9.640;2022-12-29T06:17:33;4.90;99.90
18884;DHT22;9574;47.282;9.640;2022-12-29T06:20:00;4.90;99.90
18884;DHT22;9574;47.282;9.640;2022-12-29T06:22:27;4.80;99.90
18884;DHT22;9574;47.282;9.640;2022-12-29T06:24:54;4.70;99.90
18884;DHT22;9574;47.282;9.640;2022-12-29T06:27:23;4.60;99.90
18884;DHT22;9574;47.282;9.640;2022-12-29T06:29:50;4.60;99.90
18884;DHT22;9574;47.282;9.640;2022-12-29T06:32:17;4.60;99.90
18884;DHT22;9574;47.282;9.640;2022-12-29T06:34:43;4.60;99.90
18884;DHT22;9574;47.282;9.640;2022-12-29T06:37:11;4.60;99.90
18884;DHT22;9574;47.282;9.640;2022-12-29T06:39:38;4.60;99.90
18884;DHT22;9574;47.282;9.640;2022-12-29T06:42:05;4.70;99.90
18884;DHT22;9574;47.282;9.640;2022-12-29T06:44:34;4.60;99.90
18884;DHT22;9574;47.282;9.640;2022-12-29T06:47:01;4.70;99.90
18884;DHT22;9574;47.282;9.640;2022-12-29T06:49:28;4.70;99.90
18884;DHT22;9574;47.282;9.640;2022-12-29T06:51:55;4.80;99.90
18884;DHT22;9574;47.282;9.640;2022-12-29T06:54:23;4.80;99.90
18884;DHT22;9574;47.282;9.640;2022-12-29T06:56:50;4.80;99.90
18884;DHT22;9574;47.282;9.640;2022-12-29T06:59:17;4.80;99.90
18884;DHT22;9574;47.282;9.640;2022-12-29T07:01:46;4.80;99.90
18884;DHT22;9574;47.282;9.640;2022-12-29T07:04:13;4.80;99.90
18884;DHT22;9574;47.282;9.640;2022-12-29T07:06:40;4.70;99.90
18884;DHT22;9574;47.282;9.640;2022-12-29T07:09:07;4.70;99.90
18884;DHT22;9574;47.282;9.640;2022-12-29T07:11:34;4.60;99.90
18884;DHT22;9574;47.282;9.640;2022-12-29T07:14:01;4.50;99.90
18884;DHT22;9574;47.282;9.640;2022-12-29T07:16:29;4.50;99.90
18884;DHT22;9574;47.282;9.640;2022-12-29T07:18:57;4.50;99.90
18884;DHT22;9574;47.282;9.640;2022-12-29T07:21:25;4.50;99.90
18884;DHT22;9574;47.282;9.640;2022-12-29T07:23:53;4.40;99.90
18884;DHT22;9574;47.282;9.640;2022-12-29T07:26:20;4.50;99.90
18884;DHT22;9574;47.282;9.640;2022-12-29T07:28:47;4.50;99.90
18884;DHT22;9574;47.282;9.640;2022-12-29T07:31:16;4.50;99.90
18884;DHT22;9574;47.282;9.640;2022-12-29T07:33:43;4.60;99.90
18884;DHT22;9574;47.282;9.640;2022-12-29T07:36:12;4.70;99.90
18884;DHT22;9574;47.282;9.640;2022-12-29T07:38:39;4.80;99.90
18884;DHT22;9574;47.282;9.640;2022-12-29T07:41:06;4.90;99.90
18884;DHT22;9574;47.282;9.640;2022-12-29T07:43:34;5.00;99.90
18884;DHT22;9574;47.282;9.640;2022-12-29T07:46:01;5.00;99.90
18884;DHT22;9574;47.282;9.640;2022-12-29T07:48:28;5.10;99.90
18884;DHT22;9574;47.282;9.640;2022-12-29T07:50:55;5.10;99.90
18884;DHT22;9574;47.282;9.640;2022-12-29T07:53:23;5.20;99.90
18884;DHT22;9574;47.282;9.640;2022-12-29T07:55:50;5.30;99.90
18884;DHT22;9574;47.282;9.640;2022-12-29T07:58:17;5.30;99.90
18884;DHT22;9574;47.282;9.640;2022-12-29T08:00:44;5.30;99.90
18884;DHT22;9574;47.282;9.640;2022-12-29T08:03:11;5.40;99.90
18884;DHT22;9574;47.282;9.640;2022-12-29T08:05:38;5.40;99.90
18884;DHT22;9574;47.282;9.640;2022-12-29T08:08:05;5.40;99.90
18884;DHT22;9574;47.282;9.640;2022-12-29T08:10:33;5.50;99.90
18884;DHT22;9574;47.282;9.640;2022-12-29T08:13:00;5.50;99.90
18884;DHT22;9574;47.282;9.640;2022-12-29T08:15:27;5.50;99.90
18884;DHT22;9574;47.282;9.640;2022-12-29T08:17:54;5.50;99.90
18884;DHT22;9574;47.282;9.640;2022-12-29T08:20:21;5.50;99.90
18884;DHT22;9574;47.282;9.640;2022-12-29T08:22:48;5.60;99.90
18884;DHT22;9574;47.282;9.640;2022-12-29T08:25:15;5.70;99.90
18884;DHT22;9574;47.282;9.640;2022-12-29T08:27:44;5.80;99.90
18884;DHT22;9574;47.282;9.640;2022-12-29T08:30:12;5.90;99.90
18884;DHT22;9574;47.282;9.640;2022-12-29T08:32:39;6.20;99.90
18884;DHT22;9574;47.282;9.640;2022-12-29T08:35:06;6.40;99.90
18884;DHT22;9574;47.282;9.640;2022-12-29T08:37:33;6.50;99.90
18884;DHT22;9574;47.282;9.640;2022-12-29T08:40:00;6.60;99.90
18884;DHT22;9574;47.282;9.640;2022-12-29T08:42:29;6.60;99.90
18884;DHT22;9574;47.282;9.640;2022-12-29T08:44:58;6.60;99.90
18884;DHT22;9574;47.282;9.640;2022-12-29T08:47:25;6.60;99.90
18884;DHT22;9574;47.282;9.640;2022-12-29T08:49:52;6.80;99.90
18884;DHT22;9574;47.282;9.640;2022-12-29T08:52:19;6.80;99.90
18884;DHT22;9574;47.282;9.640;2022-12-29T08:54:46;6.70;99.90
18884;DHT22;9574;47.282;9.640;2022-12-29T08:57:13;6.70;99.90
18884;DHT22;9574;47.282;9.640;2022-12-29T08:59:40;6.60;99.90
18884;DHT22;9574;47.282;9.640;2022-12-29T09:02:11;6.60;99.90
18884;DHT22;9574;47.282;9.640;2022-12-29T09:04:38;6.40;99.90
18884;DHT22;9574;47.282;9.640;2022-12-29T09:07:05;6.40;99.90
18884;DHT22;9574;47.282;9.640;2022-12-29T09:09:33;6.40;99.90
18884;DHT22;9574;47.282;9.640;2022-12-29T09:12:00;6.40;99.90
18884;DHT22;9574;47.282;9.640;2022-12-29T09:14:27;6.50;99.90
18884;DHT22;9574;47.282;9.640;2022-12-29T09:16:54;6.60;99.90
18884;DHT22;9574;47.282;9.640;2022-12-29T09:19:39;6.70;99.90
18884;DHT22;9574;47.282;9.640;2022-12-29T09:22:06;6.80;99.90
18884;DHT22;9574;47.282;9.640;2022-12-29T09:24:35;6.90;99.90
18884;DHT22;9574;47.282;9.640;2022-12-29T09:27:03;6.90;99.90
18884;DHT22;9574;47.282;9.640;2022-12-29T09:29:30;6.80;99.90
18884;DHT22;9574;47.282;9.640;2022-12-29T09:31:57;6.80;99.90
18884;DHT22;9574;47.282;9.640;2022-12-29T09:34:26;6.80;99.90
18884;DHT22;9574;47.282;9.640;2022-12-29T09:36:54;6.80;99.90
18884;DHT22;9574;47.282;9.640;2022-12-29T09:39:22;6.90;99.90
18884;DHT22;9574;47.282;9.640;2022-12-29T09:41:56;7.00;99.90
18884;DHT22;9574;47.282;9.640;2022-12-29T09:44:43;7.10;99.90
18884;DHT22;9574;47.282;9.640;2022-12-29T09:47:14;7.20;99.90
18884;DHT22;9574;47.282;9.640;2022-12-29T09:49:44;7.50;99.90
18884;DHT22;9574;47.282;9.640;2022-12-29T09:52:20;7.60;99.90
18884;DHT22;9574;47.282;9.640;2022-12-29T09:54:53;7.80;99.90
18884;DHT22;9574;47.282;9.640;2022-12-29T09:57:24;8.10;99.90
18884;DHT22;9574;47.282;9.640;2022-12-29T09:59:55;8.30;99.90
18884;DHT22;9574;47.282;9.640;2022-12-29T10:02:43;8.30;99.90
18884;DHT22;9574;47.282;9.640;2022-12-29T10:05:30;8.40;99.90
18884;DHT22;9574;47.282;9.640;2022-12-29T10:08:16;8.40;99.90
18884;DHT22;9574;47.282;9.640;2022-12-29T10:10:53;8.50;99.90
18884;DHT22;9574;47.282;9.640;2022-12-29T10:13:29;9.20;99.90
18884;DHT22;9574;47.282;9.640;2022-12-29T10:16:04;10.20;99.90
18884;DHT22;9574;47.282;9.640;2022-12-29T10:19:03;10.80;99.90
18884;DHT22;9574;47.282;9.640;2022-12-29T10:21:43;11.00;99.90
18884;DHT22;9574;47.282;9.640;2022-12-29T10:24:17;11.40;99.90
18884;DHT22;9574;47.282;9.640;2022-12-29T10:26:46;11.80;99.90
18884;DHT22;9574;47.282;9.640;2022-12-29T10:29:18;12.20;99.90
18884;DHT22;9574;47.282;9.640;2022-12-29T10:31:49;12.50;99.90
18884;DHT22;9574;47.282;9.640;2022-12-29T10:34:21;12.70;99.90
18884;DHT22;9574;47.282;9.640;2022-12-29T10:36:51;12.60;99.90
18884;DHT22;9574;47.282;9.640;2022-12-29T10:39:26;12.60;99.90
18884;DHT22;9574;47.282;9.640;2022-12-29T10:41:59;12.90;99.90
18884;DHT22;9574;47.282;9.640;2022-12-29T10:44:31;13.00;99.90
18884;DHT22;9574;47.282;9.640;2022-12-29T10:47:04;13.10;99.90
18884;DHT22;9574;47.282;9.640;2022-12-29T10:49:36;13.10;99.90
18884;DHT22;9574;47.282;9.640;2022-12-29T10:52:04;13.20;99.90
18884;DHT22;9574;47.282;9.640;2022-12-29T10:54:38;13.30;99.90
18884;DHT22;9574;47.282;9.640;2022-12-29T10:57:10;13.30;99.90
18884;DHT22;9574;47.282;9.640;2022-12-29T10:59:39;13.40;99.90
18884;DHT22;9574;47.282;9.640;2022-12-29T11:02:23;13.70;99.90
18884;DHT22;9574;47.282;9.640;2022-12-29T11:04:57;13.80;99.90
18884;DHT22;9574;47.282;9.640;2022-12-29T11:07:28;14.00;99.90
18884;DHT22;9574;47.282;9.640;2022-12-29T11:10:16;14.10;99.90
18884;DHT22;9574;47.282;9.640;2022-12-29T11:12:55;14.20;99.90
18884;DHT22;9574;47.282;9.640;2022-12-29T11:15:23;14.40;99.90
18884;DHT22;9574;47.282;9.640;2022-12-29T11:17:51;14.50;99.90
18884;DHT22;9574;47.282;9.640;2022-12-29T11:20:31;14.80;99.90
18884;DHT22;9574;47.282;9.640;2022-12-29T11:22:59;14.90;99.90
18884;DHT22;9574;47.282;9.640;2022-12-29T11:25:27;15.30;99.90
18884;DHT22;9574;47.282;9.640;2022-12-29T11:27:56;15.30;99.90
18884;DHT22;9574;47.282;9.640;2022-12-29T11:30:25;15.30;99.90
18884;DHT22;9574;47.282;9.640;2022-12-29T11:32:54;15.00;99.90
18884;DHT22;9574;47.282;9.640;2022-12-29T11:35:33;15.10;99.90
18884;DHT22;9574;47.282;9.640;2022-12-29T11:38:01;15.10;99.90
18884;DHT22;9574;47.282;9.640;2022-12-29T11:40:30;15.10;99.90
18884;DHT22;9574;47.282;9.640;2022-12-29T11:43:01;14.90;99.90
18884;DHT22;9574;47.282;9.640;2022-12-29T11:45:31;14.50;99.90
18884;DHT22;9574;47.282;9.640;2022-12-29T11:48:06;14.00;99.90
18884;DHT22;9574;47.282;9.640;2022-12-29T11:50:36;13.40;99.90
18884;DHT22;9574;47.282;9.640;2022-12-29T11:53:05;13.00;99.90
18884;DHT22;9574;47.282;9.640;2022-12-29T11:55:38;12.70;99.90
18884;DHT22;9574;47.282;9.640;2022-12-29T11:58:05;12.40;99.90
18884;DHT22;9574;47.282;9.640;2022-12-29T12:00:36;12.30;99.90
18884;DHT22;9574;47.282;9.640;2022-12-29T12:03:12;12.10;99.90
18884;DHT22;9574;47.282;9.640;2022-12-29T12:05:46;12.00;99.90
18884;DHT22;9574;47.282;9.640;2022-12-29T12:08:21;12.00;99.90
18884;DHT22;9574;47.282;9.640;2022-12-29T12:10:55;11.90;99.90
18884;DHT22;9574;47.282;9.640;2022-12-29T12:13:29;11.80;99.90
18884;DHT22;9574;47.282;9.640;2022-12-29T12:16:04;11.80;99.90
18884;DHT22;9574;47.282;9.640;2022-12-29T12:18:39;11.80;99.90
18884;DHT22;9574;47.282;9.640;2022-12-29T12:21:13;11.80;99.90
18884;DHT22;9574;47.282;9.640;2022-12-29T12:24:04;11.70;99.90
18884;DHT22;9574;47.282;9.640;2022-12-29T12:26:39;11.70;99.90
18884;DHT22;9574;47.282;9.640;2022-12-29T12:29:13;11.60;99.90
18884;DHT22;9574;47.282;9.640;2022-12-29T12:31:46;11.60;99.90
18884;DHT22;9574;47.282;9.640;2022-12-29T12:34:17;11.40;99.90
18884;DHT22;9574;47.282;9.640;2022-12-29T12:37:15;11.30;99.90
18884;DHT22;9574;47.282;9.640;2022-12-29T12:39:55;11.20;99.90
18884;DHT22;9574;47.282;9.640;2022-12-29T12:42:38;11.10;99.90
18884;DHT22;9574;47.282;9.640;2022-12-29T12:45:38;11.10;99.90
18884;DHT22;9574;47.282;9.640;2022-12-29T12:48:23;11.10;99.90
18884;DHT22;9574;47.282;9.640;2022-12-29T12:50:58;11.10;99.90
18884;DHT22;9574;47.282;9.640;2022-12-29T12:53:35;11.10;99.90
18884;DHT22;9574;47.282;9.640;2022-12-29T12:56:32;11.10;99.90
18884;DHT22;9574;47.282;9.640;2022-12-29T12:59:16;11.20;99.90
18884;DHT22;9574;47.282;9.640;2022-12-29T13:01:54;11.10;99.90
18884;DHT22;9574;47.282;9.640;2022-12-29T13:04:39;11.00;99.90
18884;DHT22;9574;47.282;9.640;2022-12-29T13:07:21;11.00;99.90
18884;DHT22;9574;47.282;9.640;2022-12-29T13:10:08;11.00;99.90
18884;DHT22;9574;47.282;9.640;2022-12-29T13:12:45;11.00;99.90
18884;DHT22;9574;47.282;9.640;2022-12-29T13:15:30;11.00;99.90
18884;DHT22;9574;47.282;9.640;2022-12-29T13:18:06;11.00;99.90
18884;DHT22;9574;47.282;9.640;2022-12-29T13:20:41;11.00;99.90
18884;DHT22;9574;47.282;9.640;2022-12-29T13:23:19;11.10;99.90
18884;DHT22;9574;47.282;9.640;2022-12-29T13:25:55;11.10;99.90
18884;DHT22;9574;47.282;9.640;2022-12-29T13:28:29;11.10;99.90
18884;DHT22;9574;47.282;9.640;2022-12-29T13:31:04;11.30;99.90
18884;DHT22;9574;47.282;9.640;2022-12-29T13:33:38;11.20;99.90
18884;DHT22;9574;47.282;9.640;2022-12-29T13:36:23;11.20;99.90
18884;DHT22;9574;47.282;9.640;2022-12-29T13:39:01;11.10;99.90
18884;DHT22;9574;47.282;9.640;2022-12-29T13:41:32;11.10;99.90
18884;DHT22;9574;47.282;9.640;2022-12-29T13:44:02;11.00;99.90
18884;DHT22;9574;47.282;9.640;2022-12-29T13:46:35;10.90;99.90
18884;DHT22;9574;47.282;9.640;2022-12-29T13:49:06;10.80;99.90
18884;DHT22;9574;47.282;9.640;2022-12-29T13:51:35;10.70;99.90
18884;DHT22;9574;47.282;9.640;2022-12-29T13:54:13;10.60;99.90
18884;DHT22;9574;47.282;9.640;2022-12-29T13:56:48;10.60;99.90
18884;DHT22;9574;47.282;9.640;2022-12-29T13:59:21;10.50;99.90
18884;DHT22;9574;47.282;9.640;2022-12-29T14:01:55;10.50;99.90
18884;DHT22;9574;47.282;9.640;2022-12-29T14:04:26;10.40;99.90
18884;DHT22;9574;47.282;9.640;2022-12-29T14:07:01;10.50;99.90
18884;DHT22;9574;47.282;9.640;2022-12-29T14:09:42;10.50;99.90
18884;DHT22;9574;47.282;9.640;2022-12-29T14:12:36;10.50;99.90
18884;DHT22;9574;47.282;9.640;2022-12-29T14:15:14;10.50;99.90
18884;DHT22;9574;47.282;9.640;2022-12-29T14:17:44;10.40;99.90
18884;DHT22;9574;47.282;9.640;2022-12-29T14:20:26;10.30;99.90
18884;DHT22;9574;47.282;9.640;2022-12-29T14:22:59;10.20;99.90
18884;DHT22;9574;47.282;9.640;2022-12-29T14:26:09;10.20;99.90
18884;DHT22;9574;47.282;9.640;2022-12-29T14:28:37;10.20;99.90
18884;DHT22;9574;47.282;9.640;2022-12-29T14:31:05;10.20;99.90
18884;DHT22;9574;47.282;9.640;2022-12-29T14:34:25;10.20;99.90
18884;DHT22;9574;47.282;9.640;2022-12-29T14:36:55;10.20;99.90
18884;DHT22;9574;47.282;9.640;2022-12-29T14:39:32;10.20;99.90
18884;DHT22;9574;47.282;9.640;2022-12-29T14:42:00;10.20;99.90
18884;DHT22;9574;47.282;9.640;2022-12-29T14:44:30;10.20;99.90
18884;DHT22;9574;47.282;9.640;2022-12-29T14:46:59;10.10;99.90
18884;DHT22;9574;47.282;9.640;2022-12-29T14:49:31;10.10;99.90
18884;DHT22;9574;47.282;9.640;2022-12-29T14:52:07;10.10;99.90
18884;DHT22;9574;47.282;9.640;2022-12-29T14:54:49;10.10;99.90
18884;DHT22;9574;47.282;9.640;2022-12-29T14:57:29;10.10;99.90
18884;DHT22;9574;47.282;9.640;2022-12-29T15:00:04;10.10;99.90
18884;DHT22;9574;47.282;9.640;2022-12-29T15:02:35;10.00;99.90
18884;DHT22;9574;47.282;9.640;2022-12-29T15:05:26;10.00;99.90
18884;DHT22;9574;47.282;9.640;2022-12-29T15:07:55;9.90;99.90
18884;DHT22;9574;47.282;9.640;2022-12-29T15:10:24;9.90;99.90
18884;DHT22;9574;47.282;9.640;2022-12-29T15:13:00;9.80;99.90
18884;DHT22;9574;47.282;9.640;2022-12-29T15:15:28;9.80;99.90
18884;DHT22;9574;47.282;9.640;2022-12-29T15:17:56;9.90;99.90
18884;DHT22;9574;47.282;9.640;2022-12-29T15:20:26;10.00;99.90
18884;DHT22;9574;47.282;9.640;2022-12-29T15:22:56;9.90;99.90
18884;DHT22;9574;47.282;9.640;2022-12-29T15:25:24;9.80;99.90
18884;DHT22;9574;47.282;9.640;2022-12-29T15:27:54;9.70;99.90
18884;DHT22;9574;47.282;9.640;2022-12-29T15:30:22;9.70;99.90
18884;DHT22;9574;47.282;9.640;2022-12-29T15:32:49;9.60;99.90
18884;DHT22;9574;47.282;9.640;2022-12-29T15:35:30;9.60;99.90
18884;DHT22;9574;47.282;9.640;2022-12-29T15:37:58;9.80;99.90
18884;DHT22;9574;47.282;9.640;2022-12-29T15:40:28;9.60;99.90
18884;DHT22;9574;47.282;9.640;2022-12-29T15:43:17;9.60;99.90
18884;DHT22;9574;47.282;9.640;2022-12-29T15:45:48;9.40;99.90
18884;DHT22;9574;47.282;9.640;2022-12-29T15:48:18;9.30;99.90
18884;DHT22;9574;47.282;9.640;2022-12-29T15:50:48;9.20;99.90
18884;DHT22;9574;47.282;9.640;2022-12-29T15:53:20;9.20;99.90
18884;DHT22;9574;47.282;9.640;2022-12-29T15:55:50;9.30;99.90
18884;DHT22;9574;47.282;9.640;2022-12-29T15:58:22;9.40;99.90
18884;DHT22;9574;47.282;9.640;2022-12-29T16:00:51;9.40;99.90
18884;DHT22;9574;47.282;9.640;2022-12-29T16:03:20;9.40;99.90
18884;DHT22;9574;47.282;9.640;2022-12-29T16:05:56;9.30;99.90
18884;DHT22;9574;47.282;9.640;2022-12-29T16:08:33;9.30;99.90
18884;DHT22;9574;47.282;9.640;2022-12-29T16:11:17;9.40;99.90
18884;DHT22;9574;47.282;9.640;2022-12-29T16:13:48;9.40;99.90
18884;DHT22;9574;47.282;9.640;2022-12-29T16:16:19;9.30;99.90
18884;DHT22;9574;47.282;9.640;2022-12-29T16:18:47;9.30;99.90
18884;DHT22;9574;47.282;9.640;2022-12-29T16:21:19;9.30;99.90
18884;DHT22;9574;47.282;9.640;2022-12-29T16:23:50;9.30;99.90
18884;DHT22;9574;47.282;9.640;2022-12-29T16:26:18;9.20;99.90
18884;DHT22;9574;47.282;9.640;2022-12-29T16:28:48;9.30;99.90
18884;DHT22;9574;47.282;9.640;2022-12-29T16:31:19;9.40;99.90